Pagrindinis puslapis
METAR-TAF:

METAR-TAF

Oro uostai :

Helsinkis, Suomija

platuma: 60-19N, ilguma: 024-58E, Aukštis: 51 m

Dabartinis oras

Ataskaita buvo paskelbta 34 minutes, ne 02:50 UTC
Vėjas 7 kt iš Vakarų/Pietvakarių
Temperatūra 13°C
Drėgmė 100%
Slėgis 1018 hPa
Matomumas 10 km arba daugiau
nėra debesų žemiau 1500 m ir nėra kamuolinių lietaus debesų

METAR: EFHK 240250Z 25007KT CAVOK 13/13 Q1018 NOSIG

Laikas: 06:24 (03:24 UTC)

Prognozė

Ataskaita buvo paskelbta 57 minutes, ne 02:27 UTC
Prognozė galioja nuo 24 metu 03 UTC su 25 metu 03 UTC
Vėjas 6 kt iš Vakarų/Pietvakarių
Matomumas 10 km arba daugiau
nėra debesų žemiau 1500 m ir nėra kamuolinių lietaus debesų
Tikimybė 30%
nuo 24 metu 03 UTC su 24 metu 05 UTC
Matomumas: 5000 m
Su prošvaistėmis ne aukštis 400 ft
rūkana
Tapsmas
nuo 24 metu 07 UTC su 24 metu 09 UTC
Vėjas 10 kt iš Šiaurės Vakarų

TAF: EFHK 240227Z 2403/2503 25006KT CAVOK PROB30 2403/2405 5000 BR BKN004 BECMG 2407/2409 31010KT

Orai ataskaitas ir orų prognozės (METAR, TAF).

turimą stotys yra geltonos ir raudonos taškus žemėlapyje.

Perkelti pele per norėdami pamatyti stoties vardą.

Tada spustelėkite, norėdami matyti oro stebėjimo ir prognozės.

Norėdami pakeisti žemėlapį: spustelėkite ant žalios mygtukų su juodo kryžiaus žemyn,; žalią mygtuką su brūkšneliu, jei norite nutolinti; arba žalių rodyklių gretimoms žemėlapius.


METAR-TAF: